Time;durP1;ratioP1;P1;durP2;ratioP2;P2;SDS_P1;SDS_P2;PMS_P1;PMS_P2;Temp;Humidity;BMP_temperature;BMP_pressure;BME280_temperature;BME280_humidity;BME280_pressure;Samples;Min_cycle;Max_cycle;Signal;HPM_P1;HPM_P2
2023/02/06 00:01:01;;;;;;;;;;;;;;;2.28;nan;102730.31;5039400;28;20004;-85
2023/02/06 00:03:33;;;;;;;;;;;;;;;2.15;nan;102726.34;5047346;28;19964;-84
2023/02/06 00:06:04;;;;;;;;;;;;;;;2.02;nan;102727.59;5033383;28;20456;-85
2023/02/06 00:08:53;;;;;;;;;;;;;;;1.91;nan;102726.13;5012059;28;19917;-84
2023/02/06 00:11:24;;;;;;;;;;;;;;;1.85;nan;102725.44;5021784;28;19970;-85
2023/02/06 00:13:55;;;;;;;;;;;;;;;1.79;nan;102731.69;5029751;28;19921;-85
2023/02/06 00:16:25;;;;;;;;;;;;;;;1.70;nan;102724.09;5038559;28;19917;-85
2023/02/06 00:18:54;;;;;;;;;;;;;;;1.63;nan;102727.75;5037602;28;19956;-85
2023/02/06 00:21:24;;;;;;;;;;;;;;;1.56;nan;102729.66;5044585;28;20302;-85
2023/02/06 00:23:51;;;;;;;;;;;;;;;1.51;nan;102734.16;5045617;28;19913;-85
2023/02/06 00:26:26;;;;;;;;;;;;;;;1.41;nan;102733.53;5027185;28;20001;-85
2023/02/06 00:28:54;;;;;;;;;;;;;;;1.34;nan;102729.38;5044068;28;19935;-85
2023/02/06 00:31:20;;;;;;;;;;;;;;;1.27;nan;102733.88;5033656;28;19923;-85
2023/02/06 00:33:51;;;;;;;;;;;;;;;1.18;nan;102728.88;5047497;28;20015;-85
2023/02/06 00:36:19;;;;;;;;;;;;;;;1.11;nan;102734.28;5037594;28;19943;-84
2023/02/06 00:38:47;;;;;;;;;;;;;;;1.00;nan;102748.41;5043219;28;19931;-84
2023/02/06 00:41:13;;;;;;;;;;;;;;;0.91;nan;102748.63;5025745;28;19925;-85
2023/02/06 00:43:42;;;;;;;;;;;;;;;0.84;nan;102747.03;5035353;28;19923;-85
2023/02/06 00:46:34;;;;;;;;;;;;;;;0.76;nan;102749.81;5032636;28;19917;-85
2023/02/06 00:48:59;;;;;;;;;;;;;;;0.70;nan;102755.16;5023475;28;20413;-85
2023/02/06 00:51:37;;;;;;;;;;;;;;;0.70;nan;102749.09;5030296;28;20424;-85
2023/02/06 00:54:06;;;;;;;;;;;;;;;0.67;nan;102749.13;5027554;28;19927;-85
2023/02/06 00:56:35;;;;;;;;;;;;;;;0.67;nan;102752.63;5026586;28;19976;-85
2023/02/06 00:59:03;;;;;;;;;;;;;;;0.74;nan;102751.59;5031130;28;19925;-85
2023/02/06 01:01:33;;;;;;;;;;;;;;;0.80;nan;102748.00;5035552;28;19921;-85
2023/02/06 01:04:02;;;;;;;;;;;;;;;0.82;nan;102754.03;5031089;28;19913;-85
2023/02/06 01:06:28;;;;;;;;;;;;;;;0.83;nan;102754.00;5001343;28;19928;-85
2023/02/06 01:08:56;;;;;;;;;;;;;;;0.87;nan;102757.38;5023255;28;19927;-85
2023/02/06 01:11:26;;;;;;;;;;;;;;;0.84;nan;102760.91;5027964;28;19921;-85
2023/02/06 01:13:52;;;;;;;;;;;;;;;0.79;nan;102764.53;5021860;28;19916;-85
2023/02/06 01:16:24;;;;;;;;;;;;;;;0.73;nan;102759.44;5022995;28;19917;-86
2023/02/06 01:18:55;;;;;;;;;;;;;;;0.66;nan;102761.31;5037547;28;20284;-85
2023/02/06 01:21:23;;;;;;;;;;;;;;;0.59;nan;102770.13;5034619;28;19967;-85
2023/02/06 01:23:55;;;;;;;;;;;;;;;0.53;nan;102772.88;5033846;28;20386;-85
2023/02/06 01:26:23;;;;;;;;;;;;;;;0.55;nan;102768.47;5031175;28;19916;-85
2023/02/06 01:28:51;;;;;;;;;;;;;;;0.57;nan;102775.41;5036516;28;20470;-86
2023/02/06 01:31:19;;;;;;;;;;;;;;;0.68;nan;102776.91;5022072;28;19971;-86
2023/02/06 01:33:48;;;;;;;;;;;;;;;0.68;nan;102782.13;5030945;28;20075;-85
2023/02/06 01:36:16;;;;;;;;;;;;;;;0.69;nan;102789.03;5044678;28;19913;-86
2023/02/06 01:38:42;;;;;;;;;;;;;;;0.71;nan;102782.91;5035340;28;19921;-85
2023/02/06 01:41:12;;;;;;;;;;;;;;;0.71;nan;102776.84;5034008;28;19924;-86
2023/02/06 01:43:48;;;;;;;;;;;;;;;0.64;nan;102776.09;5035556;28;20354;-86
2023/02/06 01:46:16;;;;;;;;;;;;;;;0.60;nan;102774.47;5024596;28;23018;-87
2023/02/06 01:48:52;;;;;;;;;;;;;;;0.55;nan;102777.16;5033549;28;19927;-86
2023/02/06 01:51:22;;;;;;;;;;;;;;;0.54;nan;102769.38;5024383;28;19917;-86
2023/02/06 01:53:52;;;;;;;;;;;;;;;0.49;nan;102766.88;5031963;28;20404;-86
2023/02/06 01:56:22;;;;;;;;;;;;;;;0.46;nan;102756.53;5020300;28;19925;-86
2023/02/06 01:58:50;;;;;;;;;;;;;;;0.46;nan;102760.88;5041802;28;20368;-86
2023/02/06 02:01:16;;;;;;;;;;;;;;;0.49;nan;102766.88;5039979;28;19973;-86
2023/02/06 02:03:43;;;;;;;;;;;;;;;0.44;nan;102760.91;5032041;28;19976;-86
2023/02/06 02:06:10;;;;;;;;;;;;;;;0.43;nan;102761.81;5032486;28;19962;-87
2023/02/06 02:08:38;;;;;;;;;;;;;;;0.38;nan;102751.50;5028283;28;19917;-86
2023/02/06 02:11:04;;;;;;;;;;;;;;;0.38;nan;102755.81;5037967;28;19996;-85
2023/02/06 02:13:33;;;;;;;;;;;;;;;0.37;nan;102759.31;5034645;28;19994;-86
2023/02/06 02:16:14;;;;;;;;;;;;;;;0.35;nan;102758.50;5033469;28;19917;-86
2023/02/06 02:18:44;;;;;;;;;;;;;;;0.27;nan;102760.41;5039617;28;19921;-85
2023/02/06 02:21:29;;;;;;;;;;;;;;;0.18;nan;102762.28;5039171;28;19913;-86
2023/02/06 02:24:01;;;;;;;;;;;;;;;0.10;nan;102764.19;5037159;28;19928;-86
2023/02/06 02:26:44;;;;;;;;;;;;;;;0.03;nan;102757.38;5041650;28;19988;-86
2023/02/06 02:29:26;;;;;;;;;;;;;;;-0.03;nan;102757.47;5037798;28;19913;-85
2023/02/06 02:32:14;;;;;;;;;;;;;;;-0.09;nan;102765.41;5041729;28;19924;-87
2023/02/06 02:34:54;;;;;;;;;;;;;;;-0.17;nan;102772.47;5038686;28;20255;-85
2023/02/06 02:37:27;;;;;;;;;;;;;;;-0.25;nan;102763.06;5048111;28;19917;-84
2023/02/06 02:40:12;;;;;;;;;;;;;;;-0.26;nan;102766.56;5034317;28;19960;-85
2023/02/06 02:42:41;;;;;;;;;;;;;;;-0.20;nan;102754.34;5032389;28;19972;-85
2023/02/06 02:45:09;;;;;;;;;;;;;;;-0.15;nan;102757.72;5042030;28;20313;-85
2023/02/06 02:47:41;;;;;;;;;;;;;;;-0.09;nan;102755.88;5041885;28;19917;-85
2023/02/06 02:50:10;;;;;;;;;;;;;;;-0.03;nan;102749.69;5031432;28;19956;-85
2023/02/06 02:52:35;;;;;;;;;;;;;;;0.02;nan;102744.41;5026332;28;20004;-84
2023/02/06 02:55:01;;;;;;;;;;;;;;;0.04;nan;102743.47;5031187;28;20533;-85
2023/02/06 02:57:28;;;;;;;;;;;;;;;0.10;nan;102748.56;5034902;28;19953;-85
2023/02/06 02:59:55;;;;;;;;;;;;;;;0.13;nan;102747.66;5034095;28;20006;-85
2023/02/06 03:02:27;;;;;;;;;;;;;;;0.14;nan;102747.63;5036812;28;19919;-84
2023/02/06 03:05:07;;;;;;;;;;;;;;;0.22;nan;102741.44;5037216;28;19932;-85
2023/02/06 03:07:32;;;;;;;;;;;;;;;0.32;nan;102746.41;5033107;28;19967;-85
2023/02/06 03:10:00;;;;;;;;;;;;;;;0.37;nan;102746.31;5047243;28;19917;-85
2023/02/06 03:12:52;;;;;;;;;;;;;;;0.42;nan;102745.31;5034064;28;19932;-84
2023/02/06 03:15:36;;;;;;;;;;;;;;;0.45;nan;102738.34;5030892;28;20083;-85
2023/02/06 03:18:14;;;;;;;;;;;;;;;0.50;nan;102746.91;5025498;28;20019;-85
2023/02/06 03:20:43;;;;;;;;;;;;;;;0.53;nan;102742.50;5027734;28;19936;-85
2023/02/06 03:23:12;;;;;;;;;;;;;;;0.51;nan;102754.69;5028782;28;19924;-85
2023/02/06 03:25:46;;;;;;;;;;;;;;;0.47;nan;102760.84;5031065;28;19920;-85
2023/02/06 03:28:24;;;;;;;;;;;;;;;0.39;nan;102752.34;5026857;28;19917;-85
2023/02/06 03:30:53;;;;;;;;;;;;;;;0.29;nan;102756.88;5028682;28;20429;-85
2023/02/06 03:33:31;;;;;;;;;;;;;;;0.23;nan;102762.19;5029056;28;19919;-85
2023/02/06 03:35:59;;;;;;;;;;;;;;;0.19;nan;102766.63;5028413;28;19948;-85
2023/02/06 03:38:29;;;;;;;;;;;;;;;0.19;nan;102761.41;5025295;28;20310;-85
2023/02/06 03:40:56;;;;;;;;;;;;;;;0.20;nan;102765.72;5035185;28;19956;-85
2023/02/06 03:43:31;;;;;;;;;;;;;;;0.19;nan;102757.94;5039558;28;19916;-85
2023/02/06 03:46:04;;;;;;;;;;;;;;;0.15;nan;102754.53;5036597;28;19917;-85
2023/02/06 03:48:32;;;;;;;;;;;;;;;0.12;nan;102754.63;5045703;28;20019;-86
2023/02/06 03:51:04;;;;;;;;;;;;;;;0.13;nan;102753.72;5031838;28;19943;-85
2023/02/06 03:53:34;;;;;;;;;;;;;;;0.13;nan;102745.91;5023854;28;19917;-86
2023/02/06 03:56:12;;;;;;;;;;;;;;;0.13;nan;102755.47;5026800;28;19928;-86
2023/02/06 03:58:42;;;;;;;;;;;;;;;0.13;nan;102747.66;5034472;28;19921;-86
2023/02/06 04:01:08;;;;;;;;;;;;;;;0.11;nan;102745.06;5032527;28;19923;-86
2023/02/06 04:03:37;;;;;;;;;;;;;;;0.10;nan;102756.38;5033651;28;20614;-86
2023/02/06 04:06:02;;;;;;;;;;;;;;;0.02;nan;102760.00;5022023;28;19971;-86
2023/02/06 04:08:32;;;;;;;;;;;;;;;-0.11;nan;102757.63;5018403;28;19969;-86
2023/02/06 04:11:03;;;;;;;;;;;;;;;-0.18;nan;102762.97;5031679;28;19917;-87
2023/02/06 04:13:29;;;;;;;;;;;;;;;-0.23;nan;102776.91;5027686;28;19917;-86
2023/02/06 04:15:55;;;;;;;;;;;;;;;-0.27;nan;102775.25;5030196;28;19936;-86
2023/02/06 04:18:23;;;;;;;;;;;;;;;-0.31;nan;102783.13;5022445;28;20019;-86
2023/02/06 04:20:51;;;;;;;;;;;;;;;-0.35;nan;102778.88;5032605;28;19917;-86
2023/02/06 04:23:19;;;;;;;;;;;;;;;-0.40;nan;102771.16;5033245;28;19917;-86
2023/02/06 04:25:45;;;;;;;;;;;;;;;-0.40;nan;102770.31;5032494;28;19928;-86
2023/02/06 04:28:10;;;;;;;;;;;;;;;-0.41;nan;102772.00;5027952;28;20345;-86
2023/02/06 04:30:36;;;;;;;;;;;;;;;-0.45;nan;102768.63;5022057;28;20006;-87
2023/02/06 04:33:02;;;;;;;;;;;;;;;-0.45;nan;102767.78;5030169;28;20205;-86
2023/02/06 04:35:28;;;;;;;;;;;;;;;-0.36;nan;102775.38;5027347;28;19955;-87
2023/02/06 04:37:53;;;;;;;;;;;;;;;-0.25;nan;102772.63;5041485;28;19924;-86
2023/02/06 04:40:19;;;;;;;;;;;;;;;-0.13;nan;102774.16;5030825;28;19913;-86
2023/02/06 04:42:45;;;;;;;;;;;;;;;-0.02;nan;102756.63;5032868;28;20048;-87
2023/02/06 04:45:10;;;;;;;;;;;;;;;0.09;nan;102746.84;5029547;28;20008;-87
2023/02/06 04:47:35;;;;;;;;;;;;;;;0.19;nan;102745.81;5023125;28;19935;-86
2023/02/06 04:50:02;;;;;;;;;;;;;;;0.24;nan;102750.91;5031382;28;19921;-86
2023/02/06 04:52:30;;;;;;;;;;;;;;;0.28;nan;102754.28;5018377;28;19913;-86
2023/02/06 04:54:56;;;;;;;;;;;;;;;0.28;nan;102754.28;5022914;28;19916;-86
2023/02/06 04:57:24;;;;;;;;;;;;;;;0.28;nan;102746.50;5034421;28;19927;-86
2023/02/06 04:59:49;;;;;;;;;;;;;;;0.24;nan;102757.84;5031768;28;19924;-86
2023/02/06 05:02:15;;;;;;;;;;;;;;;0.20;nan;102770.91;5030308;28;19917;-86
2023/02/06 05:04:46;;;;;;;;;;;;;;;0.18;nan;102767.47;5023553;28;20255;-86
2023/02/06 05:07:11;;;;;;;;;;;;;;;0.23;nan;102761.34;5040992;28;19925;-86
2023/02/06 05:09:36;;;;;;;;;;;;;;;0.27;nan;102763.84;5030774;28;20154;-87
2023/02/06 05:12:03;;;;;;;;;;;;;;;0.32;nan;102766.38;5029731;28;20000;-87
2023/02/06 05:14:29;;;;;;;;;;;;;;;0.35;nan;102768.91;5028841;28;19942;-86
2023/02/06 05:16:54;;;;;;;;;;;;;;;0.39;nan;102770.56;5023825;28;19920;-86
2023/02/06 05:19:20;;;;;;;;;;;;;;;0.45;nan;102770.41;5036437;28;19957;-86
2023/02/06 05:21:45;;;;;;;;;;;;;;;0.51;nan;102777.25;5024227;28;19917;-86
2023/02/06 05:24:11;;;;;;;;;;;;;;;0.55;nan;102777.16;5027249;28;19917;-86
2023/02/06 05:26:36;;;;;;;;;;;;;;;0.57;nan;102778.00;5031568;28;20370;-85
2023/02/06 05:29:02;;;;;;;;;;;;;;;0.59;nan;102778.81;5033852;28;20373;-86
2023/02/06 05:31:30;;;;;;;;;;;;;;;0.68;nan;102780.38;5038138;28;19995;-86
2023/02/06 05:33:58;;;;;;;;;;;;;;;0.70;nan;102770.78;5032837;28;19917;-87
2023/02/06 05:36:23;;;;;;;;;;;;;;;0.79;nan;102764.53;5025197;28;19924;-87
2023/02/06 05:38:49;;;;;;;;;;;;;;;0.85;nan;102762.63;5037353;28;19921;-86
2023/02/06 05:41:17;;;;;;;;;;;;;;;0.83;nan;102767.03;5037398;28;19948;-86
2023/02/06 05:43:43;;;;;;;;;;;;;;;0.87;nan;102762.59;5035015;28;19927;-87
2023/02/06 05:46:08;;;;;;;;;;;;;;;0.88;nan;102772.09;5029405;28;19917;-86
2023/02/06 05:48:34;;;;;;;;;;;;;;;0.91;nan;102772.06;5044564;28;19958;-86
2023/02/06 05:50:59;;;;;;;;;;;;;;;0.96;nan;102767.59;5048055;28;20358;-86
2023/02/06 05:53:25;;;;;;;;;;;;;;;1.03;nan;102763.97;5034037;28;19924;-86
2023/02/06 05:55:50;;;;;;;;;;;;;;;1.08;nan;102773.44;5033002;28;20390;-86
2023/02/06 05:58:16;;;;;;;;;;;;;;;1.10;nan;102775.13;5034277;28;20374;-87
2023/02/06 06:00:41;;;;;;;;;;;;;;;1.15;nan;102775.00;5042063;28;20453;-87
2023/02/06 06:03:06;;;;;;;;;;;;;;;1.19;nan;102766.19;5033983;28;19917;-87
2023/02/06 06:05:32;;;;;;;;;;;;;;;1.23;nan;102765.25;5033868;28;19916;-87
2023/02/06 06:07:57;;;;;;;;;;;;;;;1.24;nan;102759.13;5035464;28;19920;-86
2023/02/06 06:10:23;;;;;;;;;;;;;;;1.25;nan;102763.47;5032484;28;19917;-87
2023/02/06 06:12:48;;;;;;;;;;;;;;;1.28;nan;102764.22;5030246;28;20008;-88
2023/02/06 06:15:16;;;;;;;;;;;;;;;1.30;nan;102758.16;5040220;28;20242;-88
2023/02/06 06:17:44;;;;;;;;;;;;;;;1.29;nan;102752.09;5049251;28;19935;-87
2023/02/06 06:20:10;;;;;;;;;;;;;;;1.33;nan;102751.09;5021907;28;19927;-88
2023/02/06 06:22:38;;;;;;;;;;;;;;;1.33;nan;102751.09;5023460;28;20003;-88
2023/02/06 06:25:09;;;;;;;;;;;;;;;1.31;nan;102742.47;5012301;28;19919;-88
2023/02/06 06:27:41;;;;;;;;;;;;;;;1.30;nan;102745.97;5029403;28;20271;-87
2023/02/06 06:30:09;;;;;;;;;;;;;;;1.28;nan;102752.97;5047665;28;19986;-87
2023/02/06 06:32:43;;;;;;;;;;;;;;;1.28;nan;102747.75;5037281;28;19912;-87
2023/02/06 06:35:11;;;;;;;;;;;;;;;1.20;nan;102745.31;5024380;28;20003;-87
2023/02/06 06:37:39;;;;;;;;;;;;;;;1.23;nan;102758.28;5022084;28;20353;-86
2023/02/06 06:40:21;;;;;;;;;;;;;;;1.27;nan;102762.53;5024290;28;20475;-86
2023/02/06 06:42:50;;;;;;;;;;;;;;;1.30;nan;102761.59;5033901;28;19913;-86
2023/02/06 06:46:00;;;;;;;;;;;;;;;1.31;nan;102758.13;5023088;28;19919;-86
2023/02/06 06:48:45;;;;;;;;;;;;;;;;;;;;;
2023/02/06 06:51:22;;;;;;;;;;;;;;;1.33;nan;102756.31;5044889;28;19993;-86
2023/02/06 06:54:18;;;;;;;;;;;;;;;1.34;nan;102759.78;5032672;28;19928;-86
2023/02/06 06:56:47;;;;;;;;;;;;;;;1.40;nan;102757.88;5028108;28;20338;-86
2023/02/06 06:59:24;;;;;;;;;;;;;;;1.42;nan;102745.66;5020519;28;19925;-86
2023/02/06 07:02:04;;;;;;;;;;;;;;;1.45;nan;102766.47;5032925;28;20278;-86
2023/02/06 07:04:53;;;;;;;;;;;;;;;1.43;nan;102764.75;5024653;28;20378;-88
2023/02/06 07:08:02;;;;;;;;;;;;;;;1.42;nan;102769.13;5031910;28;20369;-88
2023/02/06 07:10:56;;;;;;;;;;;;;;;1.39;nan;102774.41;5034273;28;19917;-88
2023/02/06 07:13:34;;;;;;;;;;;;;;;1.45;nan;102792.53;5027363;28;19913;-87
2023/02/06 07:16:04;;;;;;;;;;;;;;;1.45;nan;102796.88;5031439;28;19924;-87
2023/02/06 07:18:44;;;;;;;;;;;;;;;;;;;;;
2023/02/06 07:21:15;;;;;;;;;;;;;;;1.58;nan;102785.25;5024517;28;19917;-86
2023/02/06 07:23:46;;;;;;;;;;;;;;;1.60;nan;102787.84;5014104;28;19936;-84
2023/02/06 07:26:21;;;;;;;;;;;;;;;1.62;nan;102783.41;5024873;28;20479;-87
2023/02/06 07:29:22;;;;;;;;;;;;;;;1.60;nan;102782.63;5034240;28;19943;-84
2023/02/06 07:31:51;;;;;;;;;;;;;;;1.63;nan;102777.31;5029241;28;19925;-85
2023/02/06 07:34:18;;;;;;;;;;;;;;;1.66;nan;102775.47;5023761;28;20036;-86
2023/02/06 07:36:44;;;;;;;;;;;;;;;1.73;nan;102781.41;5035663;28;19956;-86
2023/02/06 07:39:12;;;;;;;;;;;;;;;1.78;nan;102783.88;5034903;28;20376;-87
2023/02/06 07:41:41;;;;;;;;;;;;;;;1.80;nan;102784.72;5042469;28;20000;-86
2023/02/06 07:44:12;;;;;;;;;;;;;;;1.76;nan;102786.53;5041917;28;19917;-86
2023/02/06 07:46:58;;;;;;;;;;;;;;;;;;;;;
2023/02/06 07:49:30;;;;;;;;;;;;;;;1.74;nan;102783.13;5027926;28;20423;-85
2023/02/06 07:52:15;;;;;;;;;;;;;;;1.80;nan;102796.00;5026723;28;19917;-83
2023/02/06 07:54:41;;;;;;;;;;;;;;;1.85;nan;102796.72;5032543;28;20349;-83
2023/02/06 07:57:11;;;;;;;;;;;;;;;1.87;nan;102791.47;5038112;28;19920;-84
2023/02/06 07:59:39;;;;;;;;;;;;;;;1.91;nan;102793.13;5037665;28;19971;-82
2023/02/06 08:02:05;;;;;;;;;;;;;;;1.98;nan;102772.91;5039035;28;19917;-83
2023/02/06 08:04:39;;;;;;;;;;;;;;;2.06;nan;102776.19;5003954;28;19924;-85
2023/02/06 08:07:27;;;;;;;;;;;;;;;2.12;nan;102779.50;5026198;28;19925;-84
2023/02/06 08:10:07;;;;;;;;;;;;;;;2.20;nan;102770.59;5020368;28;19913;-85
2023/02/06 08:12:47;;;;;;;;;;;;;;;2.24;nan;102772.22;5036311;28;20051;-85
2023/02/06 08:15:21;;;;;;;;;;;;;;;2.27;nan;102775.59;5024770;28;19920;-84
2023/02/06 08:17:49;;;;;;;;;;;;;;;2.26;nan;102776.50;5036996;28;20051;-84
2023/02/06 08:20:15;;;;;;;;;;;;;;;2.25;nan;102777.41;5030079;28;19923;-85
2023/02/06 08:23:04;;;;;;;;;;;;;;;;;;;;;
2023/02/06 08:25:35;;;;;;;;;;;;;;;2.29;nan;102773.81;5034759;28;20015;-84
2023/02/06 08:28:03;;;;;;;;;;;;;;;2.31;nan;102771.13;5026160;28;19924;-85
2023/02/06 08:31:01;;;;;;;;;;;;;;;2.30;nan;102772.06;4991305;28;19924;-86
2023/02/06 08:33:32;;;;;;;;;;;;;;;2.36;nan;102764.06;5028337;28;19924;-85
2023/02/06 08:36:06;;;;;;;;;;;;;;;2.34;nan;102769.31;5031219;28;19913;-85
2023/02/06 08:38:55;;;;;;;;;;;;;;;2.38;nan;102779.66;5025545;28;20005;-84
2023/02/06 08:41:33;;;;;;;;;;;;;;;2.42;nan;102776.91;5019504;28;19980;-84
2023/02/06 08:44:10;;;;;;;;;;;;;;;2.44;nan;102782.97;5026212;28;19943;-84
2023/02/06 08:46:39;;;;;;;;;;;;;;;2.42;nan;102776.91;5026324;28;19923;-85
2023/02/06 08:49:34;;;;;;;;;;;;;;;2.47;nan;102759.38;5019771;28;20012;-84
2023/02/06 08:52:00;;;;;;;;;;;;;;;2.62;nan;102765.03;5025733;28;19920;-86
2023/02/06 08:54:25;;;;;;;;;;;;;;;2.67;nan;102769.25;5030464;28;20085;-85
2023/02/06 08:57:12;;;;;;;;;;;;;;;;;;;;;
2023/02/06 09:00:14;;;;;;;;;;;;;;;2.60;nan;102759.88;5016363;28;19929;-85
2023/02/06 09:02:43;;;;;;;;;;;;;;;2.58;nan;102759.06;5031929;28;19924;-84
2023/02/06 09:05:18;;;;;;;;;;;;;;;2.60;nan;102759.88;5024492;28;20008;-84
2023/02/06 09:07:48;;;;;;;;;;;;;;;2.74;nan;102762.94;5033385;28;20078;-85
2023/02/06 09:13:31;;;;;;;;;;;;;;;2.88;nan;102761.66;5027730;28;20232;-85
2023/02/06 09:16:12;;;;;;;;;;;;;;;;;;;;;
2023/02/06 09:18:38;;;;;;;;;;;;;;;2.88;nan;102759.88;5015658;28;21901;-85
2023/02/06 09:21:10;;;;;;;;;;;;;;;2.84;nan;102753.06;5019165;28;19960;-84
2023/02/06 09:23:36;;;;;;;;;;;;;;;2.78;nan;102753.22;5026976;28;19929;-84
2023/02/06 09:26:11;;;;;;;;;;;;;;;2.83;nan;102745.25;5020235;28;20509;-84
2023/02/06 09:28:49;;;;;;;;;;;;;;;;;;;;;
2023/02/06 09:31:36;;;;;;;;;;;;;;;2.94;nan;102772.78;5040212;28;20015;-84
2023/02/06 09:34:19;;;;;;;;;;;;;;;2.88;nan;102774.72;5027582;28;20408;-85
2023/02/06 09:36:48;;;;;;;;;;;;;;;2.91;nan;102777.25;5024848;28;20009;-84
2023/02/06 09:39:42;;;;;;;;;;;;;;;2.93;nan;102768.47;5026338;28;20014;-85
2023/02/06 09:42:27;;;;;;;;;;;;;;;3.09;nan;102767.97;5021061;28;19917;-86
2023/02/06 09:48:08;;;;;;;;;;;;;;;3.27;nan;102769.16;5035799;28;19980;-85
2023/02/06 09:53:52;;;;;;;;;;;;;;;3.65;nan;102753.94;4999990;28;19924;-83
2023/02/06 09:56:36;;;;;;;;;;;;;;;3.89;nan;102739.19;5032239;28;19933;-85
2023/02/06 09:59:24;;;;;;;;;;;;;;;4.12;nan;102740.94;5020487;28;19943;-85
2023/02/06 10:02:18;;;;;;;;;;;;;;;4.33;nan;102734.09;5031914;28;19927;-85
2023/02/06 10:11:28;;;;;;;;;;;;;;;4.33;nan;102727.06;4912029;28;19961;-85
2023/02/06 10:13:56;;;;;;;;;;;;;;;4.39;nan;102732.09;5022469;28;20379;-84
2023/02/06 10:16:50;;;;;;;;;;;;;;;4.50;nan;102730.81;5015407;28;20593;-87
2023/02/06 10:19:21;;;;;;;;;;;;;;;4.47;nan;102726.56;5014518;28;19957;-86
2023/02/06 10:22:09;;;;;;;;;;;;;;;4.47;nan;102718.69;5013967;28;19944;-86
2023/02/06 10:24:49;;;;;;;;;;;;;;;4.44;nan;102719.66;5029011;28;19944;-87
2023/02/06 10:27:15;;;;;;;;;;;;;;;4.45;nan;102718.75;5027169;28;19916;-86
2023/02/06 10:29:41;;;;;;;;;;;;;;;4.56;nan;102707.03;5032320;28;19956;-87
2023/02/06 10:32:25;;;;;;;;;;;;;;;4.56;nan;102707.88;5016339;28;19945;-87
2023/02/06 10:35:12;;;;;;;;;;;;;;;4.60;nan;102711.22;5046009;28;19924;-86
2023/02/06 10:37:52;;;;;;;;;;;;;;;4.59;nan;102705.13;5026919;28;19925;-84
2023/02/06 10:40:17;;;;;;;;;;;;;;;4.55;nan;102703.53;5029863;28;20402;-84
2023/02/06 10:42:58;;;;;;;;;;;;;;;4.63;nan;102695.41;5036112;28;19925;-84
2023/02/06 10:45:48;;;;;;;;;;;;;;;4.80;nan;102694.72;5023391;28;19921;-84
2023/02/06 10:48:13;;;;;;;;;;;;;;;4.85;nan;102698.00;5029174;28;19921;-83
2023/02/06 10:50:51;;;;;;;;;;;;;;;4.85;nan;102693.63;5037070;28;20429;-83
2023/02/06 10:53:30;;;;;;;;;;;;;;;4.64;nan;102689.22;5026196;28;20591;-84
2023/02/06 10:56:04;;;;;;;;;;;;;;;4.65;nan;102683.09;5042518;28;19918;-83
2023/02/06 10:58:34;;;;;;;;;;;;;;;4.63;nan;102677.91;5020570;28;19955;-83
2023/02/06 11:01:00;;;;;;;;;;;;;;;4.59;nan;102684.16;5036586;28;19928;-86
2023/02/06 11:03:29;;;;;;;;;;;;;;;4.55;nan;102679.09;5023964;28;19924;-85
2023/02/06 11:05:55;;;;;;;;;;;;;;;4.42;nan;102673.50;5031753;28;19917;-85
2023/02/06 11:08:29;;;;;;;;;;;;;;;4.44;nan;102669.91;5018283;28;19917;-85
2023/02/06 11:10:55;;;;;;;;;;;;;;;4.49;nan;102664.47;5033543;28;19918;-86
2023/02/06 11:13:28;;;;;;;;;;;;;;;4.73;nan;102667.91;5025713;28;19917;-86
2023/02/06 11:16:00;;;;;;;;;;;;;;;4.80;nan;102658.88;5029188;28;19921;-88
2023/02/06 11:18:30;;;;;;;;;;;;;;;4.72;nan;102653.09;5029698;28;19921;-85
2023/02/06 11:20:58;;;;;;;;;;;;;;;4.70;nan;102660.16;5022036;28;20216;-86
2023/02/06 11:23:27;;;;;;;;;;;;;;;4.55;nan;102658.13;5024880;28;19925;-88
2023/02/06 11:26:04;;;;;;;;;;;;;;;4.53;nan;102657.34;5031858;28;19916;-86
2023/02/06 11:28:33;;;;;;;;;;;;;;;4.53;nan;102649.47;5030907;28;19917;-85
2023/02/06 11:31:09;;;;;;;;;;;;;;;4.47;nan;102642.72;5019735;28;19916;-86
2023/02/06 11:33:44;;;;;;;;;;;;;;;4.52;nan;102635.53;5027824;28;20573;-87
2023/02/06 11:36:39;;;;;;;;;;;;;;;5.09;nan;102634.06;5020104;28;19916;-86
2023/02/06 11:39:17;;;;;;;;;;;;;;;5.80;nan;102632.81;5003261;28;19917;-88
2023/02/06 11:41:54;;;;;;;;;;;;;;;6.33;nan;102629.50;5030842;28;20437;-88
2023/02/06 11:44:22;;;;;;;;;;;;;;;6.76;nan;102640.56;5020059;28;19988;-86
2023/02/06 11:46:48;;;;;;;;;;;;;;;6.62;nan;102635.13;5029291;28;19917;-86
2023/02/06 11:49:16;;;;;;;;;;;;;;;6.56;nan;102636.31;5031769;28;20290;-89
2023/02/06 11:51:47;;;;;;;;;;;;;;;6.22;nan;102629.16;5031087;28;20382;-86
2023/02/06 11:54:30;;;;;;;;;;;;;;;5.98;nan;102624.09;5025676;28;20450;-87
2023/02/06 11:56:56;;;;;;;;;;;;;;;5.72;nan;102631.38;5019667;28;20107;-88
2023/02/06 11:59:23;;;;;;;;;;;;;;;5.51;nan;102627.06;5014533;28;19917;-86
2023/02/06 12:01:49;;;;;;;;;;;;;;;5.55;nan;102626.00;5029041;28;19951;-87
2023/02/06 12:04:22;;;;;;;;;;;;;;;5.36;nan;102622.47;5029016;28;19984;-86
2023/02/06 12:06:48;;;;;;;;;;;;;;;5.52;nan;102616.50;5032933;28;19921;-85
2023/02/06 12:09:13;;;;;;;;;;;;;;;5.79;nan;102600.41;5036338;28;19932;-85
2023/02/06 12:11:44;;;;;;;;;;;;;;;5.91;nan;102599.88;5050606;28;19984;-85
2023/02/06 12:14:15;;;;;;;;;;;;;;;5.71;nan;102592.91;5040740;28;19967;-85
2023/02/06 12:16:44;;;;;;;;;;;;;;;5.61;nan;102596.88;5037555;28;19917;-84
2023/02/06 12:19:25;;;;;;;;;;;;;;;5.78;nan;102592.63;5041749;28;19928;-85
2023/02/06 12:21:53;;;;;;;;;;;;;;;5.77;nan;102591.78;5039895;28;19920;-85
2023/02/06 12:24:37;;;;;;;;;;;;;;;5.73;nan;102583.19;5039649;28;19963;-86
2023/02/06 12:27:40;;;;;;;;;;;;;;;5.85;nan;102583.56;5034783;28;19939;-86
2023/02/06 12:30:30;;;;;;;;;;;;;;;5.43;nan;102571.44;5022357;28;20455;-86
2023/02/06 12:33:03;;;;;;;;;;;;;;;5.40;nan;102569.81;5044896;28;19909;-87
2023/02/06 12:35:35;;;;;;;;;;;;;;;5.66;nan;102580.91;5047241;28;19925;-89
2023/02/06 12:38:06;;;;;;;;;;;;;;;5.77;nan;102588.28;5042236;28;19941;-84
2023/02/06 12:40:56;;;;;;;;;;;;;;;5.66;nan;102592.25;5036058;28;19973;-85
2023/02/06 12:43:21;;;;;;;;;;;;;;;5.50;nan;102580.75;5057984;28;20444;-84
2023/02/06 12:45:59;;;;;;;;;;;;;;;5.37;nan;102592.72;5037227;28;19917;-86
2023/02/06 12:48:27;;;;;;;;;;;;;;;5.52;nan;102586.78;5038646;28;19924;-85
2023/02/06 12:50:55;;;;;;;;;;;;;;;5.63;nan;102586.31;5039126;28;20016;-86
2023/02/06 12:53:30;;;;;;;;;;;;;;;5.67;nan;102570.38;5034791;28;20380;-85
2023/02/06 12:55:55;;;;;;;;;;;;;;;5.77;nan;102557.66;5036704;28;19917;-85
2023/02/06 12:58:41;;;;;;;;;;;;;;;5.79;nan;102565.44;5038287;28;20340;-85
2023/02/06 13:01:19;;;;;;;;;;;;;;;5.75;nan;102556.88;5027861;28;19917;-85
2023/02/06 13:03:49;;;;;;;;;;;;;;;5.70;nan;102558.88;5033418;28;19917;-86
2023/02/06 13:06:24;;;;;;;;;;;;;;;5.70;nan;102554.47;5028093;28;19916;-86
2023/02/06 13:08:58;;;;;;;;;;;;;;;5.85;nan;102554.69;5044855;28;19913;-84
2023/02/06 13:11:39;;;;;;;;;;;;;;;;;;;;;
2023/02/06 13:14:40;;;;;;;;;;;;;;;5.75;nan;102554.25;5029658;28;20008;-85
2023/02/06 13:17:15;;;;;;;;;;;;;;;5.64;nan;102559.97;5010836;28;19923;-85
2023/02/06 13:19:43;;;;;;;;;;;;;;;5.61;nan;102564.53;5041150;28;19917;-87
2023/02/06 13:22:16;;;;;;;;;;;;;;;5.48;nan;102551.09;5043953;28;19916;-86
2023/02/06 13:24:43;;;;;;;;;;;;;;;5.53;nan;102549.97;5036887;28;19924;-86
2023/02/06 13:27:09;;;;;;;;;;;;;;;5.75;nan;102541.97;5027220;28;19928;-85
2023/02/06 13:29:36;;;;;;;;;;;;;;;5.85;nan;102552.91;5031517;28;19949;-85
2023/02/06 13:32:10;;;;;;;;;;;;;;;5.82;nan;102553.06;5026618;28;19923;-84
2023/02/06 13:34:43;;;;;;;;;;;;;;;5.85;nan;102549.44;5031857;28;19939;-85
2023/02/06 13:37:37;;;;;;;;;;;;;;;5.78;nan;102550.63;5029756;28;19924;-86
2023/02/06 13:40:21;;;;;;;;;;;;;;;5.67;nan;102545.88;5008340;28;19929;-84
2023/02/06 13:42:47;;;;;;;;;;;;;;;5.61;nan;102544.38;5027444;28;19917;-86
2023/02/06 13:45:24;;;;;;;;;;;;;;;5.53;nan;102538.66;5025517;28;19943;-86
2023/02/06 13:48:08;;;;;;;;;;;;;;;5.36;nan;102534.13;5027996;28;19996;-85
2023/02/06 13:50:38;;;;;;;;;;;;;;;5.25;nan;102528.53;5041011;28;19945;-85
2023/02/06 13:53:23;;;;;;;;;;;;;;;5.26;nan;102524.97;5027217;28;19932;-85
2023/02/06 13:56:04;;;;;;;;;;;;;;;5.28;nan;102536.25;5012031;28;20008;-85
2023/02/06 13:58:35;;;;;;;;;;;;;;;5.36;nan;102541.16;5041655;28;20439;-84
2023/02/06 14:01:02;;;;;;;;;;;;;;;5.49;nan;102531.81;5032728;28;20275;-85